createdAt,value
2023-05-16T00:00:52.720Z,98.55
2023-05-16T00:01:52.739Z,98.35
2023-05-16T00:02:52.821Z,97.94
2023-05-16T00:03:52.732Z,98.45
2023-05-16T00:04:53.453Z,98.45
2023-05-16T00:05:52.664Z,98.24
2023-05-16T00:06:52.658Z,97.83
2023-05-16T00:07:52.649Z,98.14
2023-05-16T00:08:53.001Z,98.35
2023-05-16T00:09:52.648Z,98.35
2023-05-16T00:10:52.630Z,98.45
2023-05-16T00:11:52.603Z,98.24
2023-05-16T00:12:52.607Z,98.30
2023-05-16T00:13:52.940Z,97.22
2023-05-16T00:14:52.585Z,97.69
2023-05-16T00:15:52.568Z,97.63
2023-05-16T00:16:52.602Z,97.33
2023-05-16T00:17:52.568Z,97.33
2023-05-16T00:18:52.893Z,97.53
2023-05-16T00:19:52.534Z,97.12
2023-05-16T00:20:52.519Z,97.12
2023-05-16T00:21:52.502Z,97.33
2023-05-16T00:22:53.092Z,97.94
2023-05-16T00:23:52.841Z,98.04
2023-05-16T00:24:52.481Z,97.53
2023-05-16T00:25:52.468Z,97.74
2023-05-16T00:26:52.463Z,97.63
2023-05-16T00:27:52.652Z,97.83
2023-05-16T00:28:52.441Z,98.10
2023-05-16T00:29:52.431Z,97.22
2023-05-16T00:30:52.423Z,96.51
2023-05-16T00:31:52.426Z,96.30
2023-05-16T00:32:52.890Z,97.02
2023-05-16T00:33:52.383Z,96.61
2023-05-16T00:34:52.416Z,96.51
2023-05-16T00:35:52.366Z,96.41
2023-05-16T00:36:52.364Z,96.30
2023-05-16T00:37:53.276Z,95.63
2023-05-16T00:38:52.346Z,96.10
2023-05-16T00:39:52.336Z,96.41
2023-05-16T00:40:52.321Z,96.71
2023-05-16T00:41:52.716Z,96.81
2023-05-16T00:42:52.620Z,96.75
2023-05-16T00:43:52.288Z,95.94
2023-05-16T00:44:52.290Z,96.96
2023-05-16T00:45:52.289Z,96.81
2023-05-16T00:46:53.064Z,96.92
2023-05-16T00:47:52.276Z,96.71
2023-05-16T00:48:52.247Z,95.63
2023-05-16T00:49:52.238Z,96.20
2023-05-16T00:50:52.232Z,96.81
2023-05-16T00:51:53.009Z,96.61
2023-05-16T00:52:52.209Z,96.20
2023-05-16T00:53:52.185Z,96.61
2023-05-16T00:54:52.176Z,96.71
2023-05-16T00:55:52.667Z,96.87
2023-05-16T00:56:52.191Z,96.77
2023-05-16T00:57:52.159Z,97.08
2023-05-16T00:58:52.145Z,97.08
2023-05-16T00:59:52.137Z,96.67
2023-05-16T01:00:52.386Z,96.97
2023-05-16T01:01:52.242Z,96.26
2023-05-16T01:02:52.213Z,96.36
2023-05-16T01:03:52.227Z,95.95
2023-05-16T01:04:52.093Z,96.67
2023-05-16T01:05:52.820Z,95.69
2023-05-16T01:06:52.069Z,96.26
2023-05-16T01:07:52.283Z,95.89
2023-05-16T01:08:52.055Z,96.36
2023-05-16T01:09:52.021Z,96.71
2023-05-16T01:10:52.041Z,97.02
2023-05-16T01:11:51.997Z,97.17
2023-05-16T01:12:52.001Z,97.28
2023-05-16T01:13:51.980Z,97.38
2023-05-16T01:14:52.339Z,97.58
2023-05-16T01:15:52.327Z,96.51
2023-05-16T01:16:51.958Z,95.59
2023-05-16T01:17:51.980Z,96.10
2023-05-16T01:18:51.950Z,96.61
2023-05-16T01:19:51.947Z,96.51
2023-05-16T01:20:51.925Z,96.81
2023-05-16T01:21:51.900Z,96.10
2023-05-16T01:22:51.896Z,96.41
2023-05-16T01:23:51.881Z,95.73
2023-05-16T01:24:52.680Z,96.04
2023-05-16T01:25:51.864Z,95.53
2023-05-16T01:26:51.873Z,96.04
2023-05-16T01:27:51.837Z,96.66
2023-05-16T01:28:51.861Z,96.66
2023-05-16T01:29:51.847Z,96.96
2023-05-16T01:30:51.830Z,96.30
2023-05-16T01:31:51.831Z,95.84
2023-05-16T01:32:51.880Z,96.10
2023-05-16T01:33:52.039Z,96.71
2023-05-16T01:34:51.786Z,97.02
2023-05-16T01:35:51.766Z,97.33
2023-05-16T01:36:51.775Z,97.02
2023-05-16T01:37:51.746Z,96.00
2023-05-16T01:38:52.197Z,95.48
2023-05-16T01:39:51.725Z,95.89
2023-05-16T01:40:51.717Z,95.89
2023-05-16T01:41:51.707Z,96.41
2023-05-16T01:42:51.702Z,96.61
2023-05-16T01:43:51.928Z,96.81
2023-05-16T01:44:51.684Z,96.51
2023-05-16T01:45:51.663Z,96.10
2023-05-16T01:46:51.691Z,95.89
2023-05-16T01:47:51.863Z,96.51
2023-05-16T01:48:51.948Z,96.41
2023-05-16T01:49:51.635Z,96.81
2023-05-16T01:50:51.625Z,96.87
2023-05-16T01:51:51.614Z,95.79
2023-05-16T01:52:51.930Z,96.15
2023-05-16T01:53:51.582Z,96.51
2023-05-16T01:54:51.587Z,96.67
2023-05-16T01:55:51.573Z,96.10
2023-05-16T01:56:51.742Z,96.26
2023-05-16T01:57:51.716Z,95.59
2023-05-16T01:58:51.549Z,96.41
2023-05-16T01:59:51.530Z,96.61
2023-05-16T02:00:51.651Z,96.51
2023-05-16T02:01:51.805Z,96.41
2023-05-16T02:02:51.531Z,96.71
2023-05-16T02:03:51.529Z,97.02
2023-05-16T02:04:51.483Z,96.92
2023-05-16T02:05:51.476Z,96.71
2023-05-16T02:06:51.869Z,96.61
2023-05-16T02:07:51.451Z,96.71
2023-05-16T02:08:51.457Z,96.41
2023-05-16T02:09:51.450Z,96.41
2023-05-16T02:10:51.429Z,96.00
2023-05-16T02:11:51.866Z,95.79
2023-05-16T02:12:51.409Z,96.00
2023-05-16T02:13:51.395Z,96.61
2023-05-16T02:14:51.381Z,96.61
2023-05-16T02:15:51.637Z,96.71
2023-05-16T02:16:51.419Z,96.20
2023-05-16T02:17:51.409Z,96.51
2023-05-16T02:18:51.384Z,95.79
2023-05-16T02:19:51.330Z,95.89
2023-05-16T02:20:52.226Z,96.51
2023-05-16T02:21:51.334Z,95.79
2023-05-16T02:22:51.308Z,94.92
2023-05-16T02:23:51.305Z,95.48
2023-05-16T02:24:51.631Z,96.14
2023-05-16T02:25:51.282Z,96.14
2023-05-16T02:26:51.275Z,96.45
2023-05-16T02:27:51.569Z,95.43
2023-05-16T02:28:51.244Z,95.84
2023-05-16T02:29:51.594Z,96.66
2023-05-16T02:30:51.600Z,96.75
2023-05-16T02:31:51.308Z,95.73
2023-05-16T02:32:51.251Z,96.66
2023-05-16T02:33:51.199Z,96.75
2023-05-16T02:34:51.349Z,96.25
2023-05-16T02:35:51.177Z,95.84
2023-05-16T02:36:51.176Z,96.45
2023-05-16T02:37:51.170Z,96.86
2023-05-16T02:38:51.147Z,96.25
2023-05-16T02:39:51.519Z,96.66
2023-05-16T02:40:51.126Z,97.06
2023-05-16T02:41:51.125Z,96.70
2023-05-16T02:42:51.109Z,96.08
2023-05-16T02:43:51.528Z,96.59
2023-05-16T02:44:51.423Z,96.91
2023-05-16T02:45:51.097Z,96.49
2023-05-16T02:46:51.107Z,97.00
2023-05-16T02:47:51.129Z,96.80
2023-05-16T02:48:51.411Z,97.31
2023-05-16T02:49:51.043Z,96.39
2023-05-16T02:50:51.024Z,96.91
2023-05-16T02:51:51.027Z,96.49
2023-05-16T02:52:51.007Z,96.49
2023-05-16T02:53:51.465Z,96.70
2023-05-16T02:55:04.653Z,97.00
2023-05-16T02:55:50.981Z,96.39
2023-05-16T02:56:50.959Z,96.91
2023-05-16T02:57:51.301Z,96.59
2023-05-16T02:58:51.183Z,97.00
2023-05-16T02:59:50.940Z,97.00
2023-05-16T03:00:50.865Z,97.11
2023-05-16T03:01:50.932Z,97.21
2023-05-16T03:02:51.262Z,97.16
2023-05-16T03:03:50.896Z,96.49
2023-05-16T03:04:50.830Z,96.49
2023-05-16T03:05:50.831Z,97.00
2023-05-16T03:06:50.806Z,96.59
2023-05-16T03:07:51.038Z,96.08
2023-05-16T03:08:50.841Z,96.49
2023-05-16T03:09:50.795Z,96.59
2023-05-16T03:10:50.784Z,96.49
2023-05-16T03:11:51.096Z,96.49
2023-05-16T03:12:51.077Z,97.31
2023-05-16T03:13:50.751Z,96.80
2023-05-16T03:14:50.729Z,96.29
2023-05-16T03:15:50.800Z,96.64
2023-05-16T03:16:51.056Z,97.25
2023-05-16T03:17:50.736Z,97.25
2023-05-16T03:18:50.713Z,97.25
2023-05-16T03:19:50.789Z,96.95
2023-05-16T03:20:50.675Z,96.84
2023-05-16T03:21:51.561Z,96.95
2023-05-16T03:22:50.646Z,96.95
2023-05-16T03:23:50.642Z,97.25
2023-05-16T03:24:50.664Z,97.56
2023-05-16T03:25:50.632Z,97.46
2023-05-16T03:26:50.950Z,97.66
2023-05-16T03:27:50.605Z,97.56
2023-05-16T03:28:50.588Z,97.46
2023-05-16T03:29:50.585Z,97.31
2023-05-16T03:30:51.050Z,97.31
2023-05-16T03:31:50.987Z,97.41
2023-05-16T03:32:50.586Z,97.11
2023-05-16T03:33:50.550Z,97.21
2023-05-16T03:34:50.532Z,97.31
2023-05-16T03:35:51.272Z,97.21
2023-05-16T03:36:50.522Z,97.11
2023-05-16T03:37:50.823Z,97.11
2023-05-16T03:38:50.497Z,96.80
2023-05-16T03:39:50.487Z,96.03
2023-05-16T03:40:50.836Z,96.44
2023-05-16T03:41:50.468Z,97.11
2023-05-16T03:42:50.456Z,96.74
2023-05-16T03:43:50.453Z,96.23
2023-05-16T03:44:50.775Z,96.33
2023-05-16T03:45:50.767Z,97.05
2023-05-16T03:46:50.412Z,96.13
2023-05-16T03:47:50.439Z,96.33
2023-05-16T03:48:50.393Z,97.36
2023-05-16T03:49:51.198Z,97.15
2023-05-16T03:50:50.377Z,96.84
2023-05-16T03:51:50.376Z,96.03
2023-05-16T03:52:50.350Z,95.82
2023-05-16T03:53:50.348Z,96.54
2023-05-16T03:54:51.274Z,96.23
2023-05-16T03:55:50.333Z,95.66
2023-05-16T03:56:50.324Z,95.62
2023-05-16T03:57:50.306Z,95.56
2023-05-16T03:58:50.629Z,95.51
2023-05-16T03:59:50.478Z,95.92
2023-05-16T04:00:50.272Z,95.87
2023-05-16T04:01:50.314Z,95.87
2023-05-16T04:02:50.304Z,95.87
2023-05-16T04:03:50.263Z,95.87
2023-05-16T04:04:50.227Z,96.58
2023-05-16T04:05:50.225Z,95.72
2023-05-16T04:06:50.210Z,94.84
2023-05-16T04:07:50.205Z,95.82
2023-05-16T04:08:50.508Z,96.17
2023-05-16T04:09:50.183Z,95.82
2023-05-16T04:10:50.163Z,95.92
2023-05-16T04:11:50.166Z,96.38
2023-05-16T04:12:50.472Z,94.84
2023-05-16T04:13:50.183Z,95.46
2023-05-16T04:14:50.127Z,95.87
2023-05-16T04:15:50.125Z,96.38
2023-05-16T04:16:50.168Z,96.07
2023-05-16T04:17:50.175Z,96.03
2023-05-16T04:18:50.108Z,96.64
2023-05-16T04:19:50.081Z,97.15
2023-05-16T04:20:50.069Z,96.74
2023-05-16T04:21:50.060Z,95.51
2023-05-16T04:22:50.354Z,95.62
2023-05-16T04:23:50.034Z,94.18
2023-05-16T04:24:50.038Z,95.36
2023-05-16T04:25:50.023Z,95.21
2023-05-16T04:26:50.020Z,95.62
2023-05-16T04:27:50.025Z,96.33
2023-05-16T04:28:50.000Z,96.44
2023-05-16T04:29:49.985Z,96.95
2023-05-16T04:30:49.961Z,96.33
2023-05-16T04:31:50.330Z,95.82
2023-05-16T04:32:50.048Z,95.62
2023-05-16T04:33:49.942Z,95.51
2023-05-16T04:34:49.929Z,94.49
2023-05-16T04:35:49.919Z,94.23
2023-05-16T04:36:49.918Z,95.10
2023-05-16T04:37:49.900Z,95.62
2023-05-16T04:38:49.882Z,94.64
2023-05-16T04:39:49.879Z,94.90
2023-05-16T04:40:49.875Z,95.25
2023-05-16T04:41:49.876Z,95.87
2023-05-16T04:42:49.846Z,95.56
2023-05-16T04:43:49.838Z,96.03
2023-05-16T04:44:49.826Z,95.36
2023-05-16T04:45:50.502Z,95.66
2023-05-16T04:46:49.946Z,95.66
2023-05-16T04:47:49.823Z,96.07
2023-05-16T04:48:49.785Z,95.05
2023-05-16T04:49:49.774Z,96.38
2023-05-16T04:50:50.537Z,96.28
2023-05-16T04:51:49.778Z,95.97
2023-05-16T04:52:49.748Z,95.97
2023-05-16T04:53:49.747Z,96.58
2023-05-16T04:54:49.728Z,95.66
2023-05-16T04:55:49.735Z,96.07
2023-05-16T04:56:49.708Z,95.46
2023-05-16T04:57:49.703Z,95.15
2023-05-16T04:58:49.683Z,95.25
2023-05-16T04:59:49.972Z,95.87
2023-05-16T05:00:50.014Z,95.66
2023-05-16T05:01:49.698Z,96.28
2023-05-16T05:02:49.665Z,96.38
2023-05-16T05:03:49.639Z,96.28
2023-05-16T05:04:50.099Z,96.44
2023-05-16T05:05:49.623Z,95.97
2023-05-16T05:06:49.604Z,95.97
2023-05-16T05:07:49.591Z,95.36
2023-05-16T05:08:49.579Z,95.66
2023-05-16T05:09:49.945Z,95.97
2023-05-16T05:10:49.560Z,96.17
2023-05-16T05:11:49.560Z,96.17
2023-05-16T05:12:49.538Z,96.38
2023-05-16T05:13:51.928Z,96.58
2023-05-16T05:14:49.844Z,96.28
2023-05-16T05:15:49.527Z,96.54
2023-05-16T05:16:49.585Z,95.36
2023-05-16T05:17:49.609Z,95.56
2023-05-16T05:18:49.931Z,96.07
2023-05-16T05:19:49.481Z,95.36
2023-05-16T05:20:49.453Z,95.05
2023-05-16T05:21:49.457Z,95.56
2023-05-16T05:22:49.445Z,95.36
2023-05-16T05:23:49.990Z,95.56
2023-05-16T05:24:49.420Z,95.76
2023-05-16T05:25:49.413Z,96.38
2023-05-16T05:26:49.415Z,96.69
2023-05-16T05:27:49.414Z,96.48
2023-05-16T05:29:01.121Z,95.97
2023-05-16T05:29:49.373Z,94.74
2023-05-16T05:30:49.367Z,94.54
2023-05-16T05:31:49.397Z,94.17
2023-05-16T05:32:49.373Z,95.29
2023-05-16T05:33:49.338Z,94.74
2023-05-16T05:34:49.315Z,94.02
2023-05-16T05:35:49.308Z,94.12
2023-05-16T05:36:49.297Z,93.82
2023-05-16T05:37:50.007Z,94.64
2023-05-16T05:38:49.272Z,94.43
2023-05-16T05:39:49.266Z,94.74
2023-05-16T05:40:49.262Z,94.84
2023-05-16T05:41:49.605Z,94.64
2023-05-16T05:42:49.253Z,94.12
2023-05-16T05:43:49.229Z,93.92
2023-05-16T05:44:49.213Z,93.71
2023-05-16T05:45:49.256Z,93.82
2023-05-16T05:46:49.228Z,92.79
2023-05-16T05:47:49.244Z,93.00
2023-05-16T05:48:49.166Z,93.71
2023-05-16T05:49:49.168Z,92.79
2023-05-16T05:50:49.150Z,93.20
2023-05-16T05:51:49.876Z,93.67
2023-05-16T05:52:49.126Z,91.26
2023-05-16T05:53:49.127Z,91.16
2023-05-16T05:54:49.106Z,92.79
2023-05-16T05:55:49.155Z,91.87
2023-05-16T05:56:49.483Z,91.16
2023-05-16T05:57:49.088Z,92.08
2023-05-16T05:58:49.099Z,91.16
2023-05-16T05:59:49.065Z,91.36
2023-05-16T06:00:49.451Z,89.92
2023-05-16T06:01:49.089Z,89.92
2023-05-16T06:02:49.205Z,91.87
2023-05-16T06:03:49.038Z,90.54
2023-05-16T06:04:49.006Z,91.73
2023-05-16T06:05:49.347Z,92.03
2023-05-16T06:06:48.996Z,91.22
2023-05-16T06:07:48.988Z,89.83
2023-05-16T06:08:48.970Z,91.56
2023-05-16T06:09:49.146Z,92.28
2023-05-16T06:10:49.295Z,89.92
2023-05-16T06:11:48.947Z,90.58
2023-05-16T06:12:48.930Z,91.91
2023-05-16T06:13:48.935Z,91.30
2023-05-16T06:14:49.230Z,91.30
2023-05-16T06:15:48.902Z,91.71
2023-05-16T06:16:48.900Z,91.50
2023-05-16T06:17:48.895Z,92.43
2023-05-16T06:18:48.969Z,92.22
2023-05-16T06:19:49.167Z,92.43
2023-05-16T06:20:48.871Z,92.02
2023-05-16T06:21:48.847Z,90.07
2023-05-16T06:22:48.835Z,90.48
2023-05-16T06:23:48.827Z,91.30
2023-05-16T06:24:49.168Z,91.30
2023-05-16T06:25:48.795Z,91.87
2023-05-16T06:26:48.797Z,91.36
2023-05-16T06:27:48.770Z,88.80
2023-05-16T06:28:49.077Z,87.41
2023-05-16T06:29:48.756Z,87.61
2023-05-16T06:30:48.750Z,88.23
2023-05-16T06:31:49.398Z,90.64
2023-05-16T06:32:48.804Z,88.90
2023-05-16T06:33:48.812Z,88.04
2023-05-16T06:34:48.713Z,85.63
2023-05-16T06:35:49.035Z,86.71
2023-05-16T06:36:49.393Z,86.20
2023-05-16T06:37:48.675Z,85.28
2023-05-16T06:38:49.033Z,86.71
2023-05-16T06:39:48.654Z,86.30
2023-05-16T06:40:48.650Z,85.03
2023-05-16T06:41:48.655Z,86.88
2023-05-16T06:42:48.977Z,85.85
2023-05-16T06:43:48.611Z,84.42
2023-05-16T06:44:48.609Z,85.75
2023-05-16T06:45:48.597Z,84.52
2023-05-16T06:46:48.616Z,85.40
2023-05-16T06:47:49.375Z,84.48
2023-05-16T06:48:48.571Z,85.61
2023-05-16T06:49:48.557Z,83.76
2023-05-16T06:50:48.567Z,85.97
2023-05-16T06:51:49.484Z,81.82
2023-05-16T06:52:48.879Z,82.78
2023-05-16T06:53:48.508Z,84.11
2023-05-16T06:54:48.521Z,85.75
2023-05-16T06:55:48.506Z,85.64
2023-05-16T06:56:48.756Z,85.10
2023-05-16T06:57:48.474Z,82.89
2023-05-16T06:58:48.467Z,83.09
2023-05-16T06:59:48.471Z,82.41
2023-05-16T07:00:48.468Z,83.54
2023-05-16T07:01:48.829Z,83.47
2023-05-16T07:02:48.488Z,84.29
2023-05-16T07:03:48.514Z,83.27
2023-05-16T07:04:48.408Z,83.06
2023-05-16T07:05:48.404Z,85.11
2023-05-16T07:06:48.735Z,85.31
2023-05-16T07:07:48.367Z,84.77
2023-05-16T07:08:48.380Z,83.95
2023-05-16T07:09:48.349Z,85.52
2023-05-16T07:10:48.977Z,83.98
2023-05-16T07:11:48.329Z,84.80
2023-05-16T07:12:48.339Z,84.80
2023-05-16T07:13:48.323Z,86.55
2023-05-16T07:14:48.314Z,84.50
2023-05-16T07:15:48.493Z,84.56
2023-05-16T07:16:48.348Z,84.87
2023-05-16T07:17:48.282Z,83.81
2023-05-16T07:18:48.319Z,83.70
2023-05-16T07:19:48.586Z,83.15
2023-05-16T07:20:48.604Z,83.36
2023-05-16T07:21:48.233Z,83.01
2023-05-16T07:22:48.259Z,81.72
2023-05-16T07:23:48.219Z,82.40
2023-05-16T07:24:48.565Z,82.84
2023-05-16T07:25:48.203Z,83.42
2023-05-16T07:26:48.197Z,82.50
2023-05-16T07:27:48.178Z,82.29
2023-05-16T07:28:48.433Z,81.07
2023-05-16T07:29:48.489Z,79.47
2023-05-16T07:30:48.168Z,80.76
2023-05-16T07:31:48.225Z,81.13
2023-05-16T07:32:48.195Z,78.95
2023-05-16T07:33:48.446Z,79.36
2023-05-16T07:34:48.425Z,79.97
2023-05-16T07:35:48.093Z,77.72
2023-05-16T07:36:48.088Z,77.86
2023-05-16T07:37:48.079Z,79.97
2023-05-16T07:38:48.780Z,77.86
2023-05-16T07:39:48.059Z,77.39
2023-05-16T07:40:48.051Z,79.23
2023-05-16T07:41:48.043Z,79.33
2023-05-16T07:42:48.033Z,80.25
2023-05-16T07:43:48.185Z,78.41
2023-05-16T07:44:48.012Z,78.38
2023-05-16T07:45:48.015Z,77.97
2023-05-16T07:46:47.997Z,75.75
2023-05-16T07:47:48.368Z,78.99
2023-05-16T07:48:48.880Z,77.45
2023-05-16T07:49:47.993Z,78.23
2023-05-16T07:50:47.960Z,77.52
2023-05-16T07:51:47.940Z,77.01
2023-05-16T07:52:48.294Z,78.13
2023-05-16T07:53:47.925Z,78.34
2023-05-16T07:54:47.913Z,74.76
2023-05-16T07:55:47.907Z,74.87
2023-05-16T07:56:47.908Z,76.60
2023-05-16T07:57:48.141Z,73.94
2023-05-16T07:58:47.885Z,73.16
2023-05-16T07:59:47.924Z,74.80
2023-05-16T08:00:47.871Z,76.03
2023-05-16T08:01:47.865Z,77.25
2023-05-16T08:02:48.254Z,73.68
2023-05-16T08:03:47.860Z,75.34
2023-05-16T08:04:47.836Z,74.73
2023-05-16T08:05:47.872Z,74.63
2023-05-16T08:06:48.438Z,74.93
2023-05-16T08:07:47.790Z,75.24
2023-05-16T08:08:47.790Z,73.61
2023-05-16T08:09:47.780Z,76.47
2023-05-16T08:10:47.770Z,75.31
2023-05-16T08:11:47.798Z,74.18
2023-05-16T08:12:47.757Z,75.00
2023-05-16T08:13:47.746Z,75.21
2023-05-16T08:14:47.741Z,76.03
2023-05-16T08:15:48.096Z,72.89
2023-05-16T08:16:48.046Z,73.47
2023-05-16T08:17:47.731Z,74.08
2023-05-16T08:18:47.790Z,72.14
2023-05-16T08:19:47.691Z,75.07
2023-05-16T08:20:47.727Z,74.76
2023-05-16T08:21:47.677Z,73.40
2023-05-16T08:22:47.669Z,71.70
2023-05-16T08:23:47.665Z,71.80
2023-05-16T08:24:47.648Z,73.84
2023-05-16T08:25:47.666Z,73.19
2023-05-16T08:26:47.637Z,71.26
2023-05-16T08:27:47.620Z,72.65
2023-05-16T08:28:47.614Z,72.31
2023-05-16T08:29:47.956Z,69.49
2023-05-16T08:30:48.190Z,69.49
2023-05-16T08:31:47.823Z,70.68
2023-05-16T08:32:47.628Z,70.95
2023-05-16T08:33:47.560Z,69.39
2023-05-16T08:34:47.851Z,68.21
2023-05-16T08:35:47.546Z,68.31
2023-05-16T08:36:47.548Z,64.54
2023-05-16T08:37:47.535Z,69.43
2023-05-16T08:38:47.533Z,64.98
2023-05-16T08:39:47.955Z,66.07
2023-05-16T08:40:47.512Z,64.41
2023-05-16T08:41:47.488Z,63.91
2023-05-16T08:42:47.488Z,63.45
2023-05-16T08:43:47.813Z,62.94
2023-05-16T08:44:47.843Z,62.33
2023-05-16T08:45:47.457Z,63.45
2023-05-16T08:46:47.467Z,61.27
2023-05-16T08:47:47.514Z,61.60
2023-05-16T08:48:47.759Z,62.75
2023-05-16T08:49:47.435Z,63.36
2023-05-16T08:50:47.407Z,64.28
2023-05-16T08:51:47.396Z,62.65
2023-05-16T08:52:47.398Z,64.28
2023-05-16T08:53:48.133Z,62.81
2023-05-16T08:54:55.220Z,61.90
2023-05-16T08:55:47.357Z,59.48
2023-05-16T08:56:47.347Z,59.07
2023-05-16T08:57:47.672Z,58.56
2023-05-16T08:58:47.630Z,62.30
2023-05-16T08:59:47.309Z,64.28
2023-05-16T09:00:47.335Z,59.31
2023-05-16T09:01:47.334Z,57.12
2023-05-16T09:02:47.693Z,58.29
2023-05-16T09:03:47.302Z,57.62
2023-05-16T09:04:47.262Z,52.97
2023-05-16T09:05:47.254Z,55.83
2023-05-16T09:06:47.232Z,53.67
2023-05-16T09:07:47.572Z,55.86
2023-05-16T09:08:47.222Z,55.88
2023-05-16T09:09:47.198Z,57.84
2023-05-16T09:10:47.200Z,57.87
2023-05-16T09:11:47.504Z,60.95
2023-05-16T09:12:47.515Z,63.59
2023-05-16T09:13:47.165Z,64.00
2023-05-16T09:14:47.155Z,61.15
2023-05-16T09:15:47.139Z,60.68
2023-05-16T09:16:47.513Z,61.99
2023-05-16T09:17:47.314Z,63.32
2023-05-16T09:18:47.214Z,63.59
2023-05-16T09:19:47.317Z,61.69
2023-05-16T09:20:47.929Z,60.85
2023-05-16T09:21:47.076Z,61.74
2023-05-16T09:22:47.064Z,60.11
2023-05-16T09:23:47.049Z,61.91
2023-05-16T09:24:47.547Z,61.91
2023-05-16T09:25:47.371Z,58.42
2023-05-16T09:26:47.026Z,60.66
2023-05-16T09:27:47.003Z,59.89
2023-05-16T09:28:47.000Z,58.47
2023-05-16T09:29:46.984Z,56.95
2023-05-16T09:30:47.923Z,59.77
2023-05-16T09:31:47.002Z,58.54
2023-05-16T09:32:47.000Z,57.91
2023-05-16T09:33:46.951Z,56.26
2023-05-16T09:34:47.291Z,54.16
2023-05-16T09:35:47.523Z,55.60
2023-05-16T09:36:46.916Z,54.82
2023-05-16T09:37:46.901Z,54.51
2023-05-16T09:38:46.894Z,57.15
2023-05-16T09:39:47.611Z,56.95
2023-05-16T09:40:46.867Z,58.17
2023-05-16T09:41:46.884Z,55.45
2023-05-16T09:42:46.854Z,57.84
2023-05-16T09:43:46.839Z,57.23
2023-05-16T09:44:47.176Z,57.35
2023-05-16T09:45:46.815Z,56.24
2023-05-16T09:46:46.828Z,57.48
2023-05-16T09:47:46.827Z,54.77
2023-05-16T09:48:47.612Z,56.13
2023-05-16T09:49:47.047Z,53.39
2023-05-16T09:50:46.774Z,53.37
2023-05-16T09:51:46.750Z,52.48
2023-05-16T09:52:46.749Z,53.02
2023-05-16T09:53:47.083Z,53.19
2023-05-16T09:54:46.724Z,51.95
2023-05-16T09:55:46.706Z,50.43
2023-05-16T09:56:46.704Z,54.64
2023-05-16T09:57:46.993Z,52.39
2023-05-16T09:58:47.479Z,50.56
2023-05-16T09:59:46.675Z,50.86
2023-05-16T10:00:46.660Z,51.60
2023-05-16T10:01:46.709Z,56.16
2023-05-16T10:02:47.030Z,53.96
2023-05-16T10:03:46.700Z,53.42
2023-05-16T10:04:46.620Z,54.77
2023-05-16T10:05:46.642Z,55.91
2023-05-16T10:06:46.604Z,55.10
2023-05-16T10:07:47.315Z,53.80
2023-05-16T10:08:46.575Z,54.90
2023-05-16T10:09:46.565Z,56.62
2023-05-16T10:10:46.582Z,53.75
2023-05-16T10:11:46.776Z,53.42
2023-05-16T10:12:46.864Z,53.12
2023-05-16T10:13:46.592Z,52.71
2023-05-16T10:14:46.514Z,55.25
2023-05-16T10:15:46.542Z,54.11
2023-05-16T10:16:47.149Z,52.84
2023-05-16T10:17:46.516Z,51.24
2023-05-16T10:18:46.504Z,54.72
2023-05-16T10:19:46.446Z,55.22
2023-05-16T10:20:46.496Z,54.18
2023-05-16T10:21:47.551Z,50.93
2023-05-16T10:22:46.492Z,50.73
2023-05-16T10:23:47.652Z,54.11
2023-05-16T10:24:46.392Z,54.44
2023-05-16T10:25:46.715Z,54.53
2023-05-16T10:26:47.482Z,53.88
2023-05-16T10:27:46.358Z,52.97
2023-05-16T10:28:46.374Z,52.23
2023-05-16T10:29:54.185Z,50.68
2023-05-16T10:30:47.148Z,52.89
2023-05-16T10:31:46.330Z,55.19
2023-05-16T10:32:46.362Z,55.75
2023-05-16T10:33:46.308Z,51.76
2023-05-16T10:34:46.293Z,49.10
2023-05-16T10:35:46.708Z,52.79
2023-05-16T10:36:46.278Z,50.35
2023-05-16T10:37:46.249Z,52.11
2023-05-16T10:38:46.259Z,53.88
2023-05-16T10:39:47.022Z,53.22
2023-05-16T10:40:46.242Z,54.94
2023-05-16T10:41:46.235Z,56.98
2023-05-16T10:42:46.198Z,55.96
2023-05-16T10:43:46.225Z,55.43
2023-05-16T10:45:01.924Z,52.46
2023-05-16T10:45:46.177Z,56.29
2023-05-16T10:46:46.160Z,52.92
2023-05-16T10:47:46.224Z,52.48
2023-05-16T10:48:46.137Z,50.34
2023-05-16T10:49:46.870Z,50.71
2023-05-16T10:50:46.110Z,51.90
2023-05-16T10:51:46.133Z,47.07
2023-05-16T10:52:46.095Z,47.47
2023-05-16T10:53:46.887Z,49.73
2023-05-16T10:54:46.623Z,49.83
2023-05-16T10:55:46.078Z,47.92
2023-05-16T10:56:46.056Z,49.08
2023-05-16T10:57:46.048Z,49.23
2023-05-16T10:58:46.351Z,50.17
2023-05-16T10:59:46.027Z,53.80
2023-05-16T11:00:46.015Z,55.02
2023-05-16T11:01:46.116Z,52.89
2023-05-16T11:02:46.013Z,53.65
2023-05-16T11:03:46.380Z,53.22
2023-05-16T11:04:45.975Z,53.19
2023-05-16T11:05:45.969Z,51.67
2023-05-16T11:06:45.943Z,55.80
2023-05-16T11:07:46.713Z,53.96
2023-05-16T11:08:46.242Z,56.02
2023-05-16T11:09:45.938Z,49.15
2023-05-16T11:10:45.907Z,47.91
2023-05-16T11:11:48.639Z,50.32
2023-05-16T11:12:45.905Z,51.30
2023-05-16T11:13:46.118Z,50.07
2023-05-16T11:14:45.855Z,50.95
2023-05-16T11:15:45.845Z,50.42
2023-05-16T11:16:45.861Z,49.49
2023-05-16T11:17:46.415Z,49.33
2023-05-16T11:18:45.840Z,44.60
2023-05-16T11:19:45.811Z,44.46
2023-05-16T11:20:45.789Z,48.46
2023-05-16T11:21:45.802Z,48.07
2023-05-16T11:22:45.785Z,47.34
2023-05-16T11:23:45.747Z,47.19
2023-05-16T11:24:45.732Z,45.47
2023-05-16T11:25:45.760Z,46.38
2023-05-16T11:26:46.082Z,46.69
2023-05-16T11:27:45.721Z,48.18
2023-05-16T11:28:45.685Z,48.31
2023-05-16T11:29:45.681Z,51.35
2023-05-16T11:30:45.658Z,46.71
2023-05-16T11:31:45.701Z,48.54
2023-05-16T11:32:45.760Z,50.56
2023-05-16T11:33:45.633Z,47.64
2023-05-16T11:34:45.617Z,47.56
2023-05-16T11:35:45.956Z,50.00
2023-05-16T11:36:46.308Z,50.10
2023-05-16T11:37:45.589Z,49.47
2023-05-16T11:38:45.591Z,51.47
2023-05-16T11:39:45.669Z,49.83
2023-05-16T11:40:45.887Z,47.09
2023-05-16T11:41:46.684Z,48.08
2023-05-16T11:42:45.530Z,49.48
2023-05-16T11:43:45.524Z,44.68
2023-05-16T11:44:45.502Z,47.51
2023-05-16T11:45:45.853Z,48.58
2023-05-16T11:46:45.516Z,46.94
2023-05-16T11:47:45.547Z,44.25
2023-05-16T11:48:45.519Z,44.35
2023-05-16T11:49:47.017Z,45.39
2023-05-16T11:50:45.773Z,44.29
2023-05-16T11:51:45.428Z,46.75
2023-05-16T11:52:45.411Z,46.46
2023-05-16T11:53:45.398Z,45.90
2023-05-16T11:54:45.409Z,48.76
2023-05-16T11:55:46.813Z,50.38
2023-05-16T11:56:45.359Z,50.48
2023-05-16T11:57:45.355Z,50.68
2023-05-16T11:58:45.338Z,49.85
2023-05-16T11:59:45.605Z,48.79
2023-05-16T12:00:45.315Z,45.33
2023-05-16T12:01:45.308Z,45.83
2023-05-16T12:02:45.377Z,46.50
2023-05-16T12:03:45.424Z,45.04
2023-05-16T12:04:45.837Z,45.50
2023-05-16T12:05:45.308Z,44.89
2023-05-16T12:06:45.241Z,46.69
2023-05-16T12:07:45.281Z,44.74
2023-05-16T12:08:45.606Z,45.37
2023-05-16T12:09:45.217Z,46.38
2023-05-16T12:10:45.187Z,48.97
2023-05-16T12:11:45.188Z,49.35
2023-05-16T12:12:45.175Z,44.88
2023-05-16T12:13:45.342Z,46.09
2023-05-16T12:14:45.247Z,47.51
2023-05-16T12:15:45.150Z,45.08
2023-05-16T12:16:45.143Z,45.25
2023-05-16T12:17:45.386Z,46.59
2023-05-16T12:18:45.541Z,49.02
2023-05-16T12:19:45.083Z,46.20
2023-05-16T12:20:45.071Z,46.22
2023-05-16T12:21:45.078Z,48.58
2023-05-16T12:22:45.523Z,47.97
2023-05-16T12:23:45.090Z,50.13
2023-05-16T12:24:45.030Z,47.45
2023-05-16T12:25:45.012Z,46.34
2023-05-16T12:26:44.991Z,48.34
2023-05-16T12:27:45.915Z,52.54
2023-05-16T12:28:44.970Z,47.59
2023-05-16T12:29:44.964Z,45.49
2023-05-16T12:30:44.972Z,47.49
2023-05-16T12:31:45.129Z,49.05
2023-05-16T12:32:45.673Z,43.51
2023-05-16T12:33:44.969Z,43.23
2023-05-16T12:34:44.970Z,41.91
2023-05-16T12:35:44.906Z,44.01
2023-05-16T12:36:44.903Z,45.61
2023-05-16T12:37:44.867Z,45.90
2023-05-16T12:38:46.311Z,40.34
2023-05-16T12:39:44.845Z,43.16
2023-05-16T12:40:44.848Z,42.80
2023-05-16T12:41:45.554Z,42.13
2023-05-16T12:42:44.804Z,44.78
2023-05-16T12:43:44.795Z,42.37
2023-05-16T12:44:44.780Z,45.20
2023-05-16T12:45:45.100Z,43.89
2023-05-16T12:46:45.226Z,42.49
2023-05-16T12:47:44.803Z,45.86
2023-05-16T12:48:44.727Z,43.52
2023-05-16T12:49:44.721Z,42.52
2023-05-16T12:50:45.032Z,44.46
2023-05-16T12:51:44.694Z,43.37
2023-05-16T12:52:45.650Z,44.60